Bridgnorth, United Kingdom
Current Conditions -  °F | °C
As of 5:50 AM on Saturday 29 Nov 2014 (Local Time) from EGOS Reporting Station
Haze Haze  
Wind Chill: 50°   Ceiling: 600
Heat Index: 50°   Visibility: 3mi
Dew Point: 48°   Wind: 9mph
Humidity: 94%   Direction: 80°E
Pressure: 29.77"   Gusts: NA
Location:  52.54°N, 2.42°W
Report Text: EGOS 290550Z AUTO 08008KT 4800 BR BKN006/// SCT120/// 10/09 Q1008
Loading
Personal Weather Stations






























Interactive Weather Map New forecast layout! Learn more

10-Day Weather Forecast

Advertisements
Track Severe Weather on mobile